Terminal Aerodrome Forecast
Issued by NWS Grand Forks, ND

Home | Current Version | Previous Version | Text Only | Print | Product List | Glossary On
Versions: 1 2 3 4 5 6 7 8 9 10 11 12 13 14 15 16 17 18 19 20
732
FTUS43 KFGF 232340
TAFGFK
TAF
KGFK 232340Z 2400/2424 21005KT P6SM OVC008
      TEMPO 2400/2402 OVC015
     FM240200 27006KT P6SM OVC020
     FM241400 21005KT P6SM BKN020
     FM242100 16005KT P6SM BKN130=

USA.gov is the U.S. government's official web portal to all federal, state and local government web resources and services.